sensor_id;sensor_type;location;lat;lon;timestamp;temperature;humidity
13817;DHT22;6979;52.116;5.286;2023-03-01T00:01:01;4.70;93.60
13817;DHT22;6979;52.116;5.286;2023-03-01T00:03:28;4.70;93.80
13817;DHT22;6979;52.116;5.286;2023-03-01T00:05:57;4.70;93.80
13817;DHT22;6979;52.116;5.286;2023-03-01T00:08:27;4.70;93.90
13817;DHT22;6979;52.116;5.286;2023-03-01T00:11:03;4.70;94.00
13817;DHT22;6979;52.116;5.286;2023-03-01T00:13:30;4.60;94.00
13817;DHT22;6979;52.116;5.286;2023-03-01T00:15:57;4.60;94.00
13817;DHT22;6979;52.116;5.286;2023-03-01T00:18:24;4.60;94.10
13817;DHT22;6979;52.116;5.286;2023-03-01T00:20:51;4.60;94.00
13817;DHT22;6979;52.116;5.286;2023-03-01T00:23:20;4.50;94.10
13817;DHT22;6979;52.116;5.286;2023-03-01T00:25:48;4.50;94.20
13817;DHT22;6979;52.116;5.286;2023-03-01T00:28:15;4.50;94.10
13817;DHT22;6979;52.116;5.286;2023-03-01T00:30:42;4.50;94.40
13817;DHT22;6979;52.116;5.286;2023-03-01T00:33:09;4.50;94.60
13817;DHT22;6979;52.116;5.286;2023-03-01T00:35:36;4.40;94.50
13817;DHT22;6979;52.116;5.286;2023-03-01T00:38:03;4.40;94.50
13817;DHT22;6979;52.116;5.286;2023-03-01T00:40:34;4.40;94.60
13817;DHT22;6979;52.116;5.286;2023-03-01T00:43:01;4.40;94.80
13817;DHT22;6979;52.116;5.286;2023-03-01T00:45:29;4.30;94.90
13817;DHT22;6979;52.116;5.286;2023-03-01T00:47:56;4.30;95.10
13817;DHT22;6979;52.116;5.286;2023-03-01T00:50:23;4.30;95.20
13817;DHT22;6979;52.116;5.286;2023-03-01T00:52:55;4.30;95.30
13817;DHT22;6979;52.116;5.286;2023-03-01T00:55:29;4.30;95.60
13817;DHT22;6979;52.116;5.286;2023-03-01T00:57:57;4.30;95.70
13817;DHT22;6979;52.116;5.286;2023-03-01T01:00:27;4.30;95.80
13817;DHT22;6979;52.116;5.286;2023-03-01T01:02:55;4.30;95.80
13817;DHT22;6979;52.116;5.286;2023-03-01T01:05:21;4.30;95.70
13817;DHT22;6979;52.116;5.286;2023-03-01T01:07:48;4.30;95.70
13817;DHT22;6979;52.116;5.286;2023-03-01T01:10:18;4.30;95.80
13817;DHT22;6979;52.116;5.286;2023-03-01T01:12:46;4.30;95.90
13817;DHT22;6979;52.116;5.286;2023-03-01T01:15:14;4.30;96.00
13817;DHT22;6979;52.116;5.286;2023-03-01T01:17:42;4.30;96.10
13817;DHT22;6979;52.116;5.286;2023-03-01T01:20:10;4.30;96.00
13817;DHT22;6979;52.116;5.286;2023-03-01T01:22:37;4.30;96.00
13817;DHT22;6979;52.116;5.286;2023-03-01T01:25:05;4.30;95.90
13817;DHT22;6979;52.116;5.286;2023-03-01T01:27:32;4.30;95.80
13817;DHT22;6979;52.116;5.286;2023-03-01T01:29:58;4.30;96.00
13817;DHT22;6979;52.116;5.286;2023-03-01T01:32:27;4.30;96.00
13817;DHT22;6979;52.116;5.286;2023-03-01T01:34:53;4.20;95.90
13817;DHT22;6979;52.116;5.286;2023-03-01T01:37:21;4.20;95.90
13817;DHT22;6979;52.116;5.286;2023-03-01T01:39:49;4.20;95.90
13817;DHT22;6979;52.116;5.286;2023-03-01T01:42:18;4.20;95.90
13817;DHT22;6979;52.116;5.286;2023-03-01T01:44:46;4.20;96.00
13817;DHT22;6979;52.116;5.286;2023-03-01T01:47:15;4.20;96.00
13817;DHT22;6979;52.116;5.286;2023-03-01T01:49:47;4.20;96.00
13817;DHT22;6979;52.116;5.286;2023-03-01T01:52:18;4.10;95.80
13817;DHT22;6979;52.116;5.286;2023-03-01T01:54:50;4.10;95.90
13817;DHT22;6979;52.116;5.286;2023-03-01T01:57:23;4.10;95.90
13817;DHT22;6979;52.116;5.286;2023-03-01T01:59:54;4.10;96.00
13817;DHT22;6979;52.116;5.286;2023-03-01T02:02:24;4.10;96.10
13817;DHT22;6979;52.116;5.286;2023-03-01T02:04:58;4.00;96.00
13817;DHT22;6979;52.116;5.286;2023-03-01T02:07:29;4.00;96.00
13817;DHT22;6979;52.116;5.286;2023-03-01T02:09:57;4.00;96.00
13817;DHT22;6979;52.116;5.286;2023-03-01T02:12:25;4.00;96.10
13817;DHT22;6979;52.116;5.286;2023-03-01T02:14:52;3.90;96.00
13817;DHT22;6979;52.116;5.286;2023-03-01T02:17:19;3.90;96.20
13817;DHT22;6979;52.116;5.286;2023-03-01T02:19:59;3.90;96.40
13817;DHT22;6979;52.116;5.286;2023-03-01T02:22:35;3.90;96.60
13817;DHT22;6979;52.116;5.286;2023-03-01T02:25:12;3.90;96.60
13817;DHT22;6979;52.116;5.286;2023-03-01T02:27:49;3.80;96.70
13817;DHT22;6979;52.116;5.286;2023-03-01T02:30:20;3.80;96.80
13817;DHT22;6979;52.116;5.286;2023-03-01T02:32:48;3.80;96.70
13817;DHT22;6979;52.116;5.286;2023-03-01T02:35:19;3.80;96.60
13817;DHT22;6979;52.116;5.286;2023-03-01T02:37:47;3.80;96.70
13817;DHT22;6979;52.116;5.286;2023-03-01T02:40:17;3.80;96.70
13817;DHT22;6979;52.116;5.286;2023-03-01T02:42:50;3.80;96.80
13817;DHT22;6979;52.116;5.286;2023-03-01T02:45:19;3.80;96.90
13817;DHT22;6979;52.116;5.286;2023-03-01T02:47:46;3.70;96.90
13817;DHT22;6979;52.116;5.286;2023-03-01T02:50:25;3.70;97.00
13817;DHT22;6979;52.116;5.286;2023-03-01T02:53:15;3.70;97.20
13817;DHT22;6979;52.116;5.286;2023-03-01T02:55:43;3.70;97.20
13817;DHT22;6979;52.116;5.286;2023-03-01T02:58:10;3.70;97.00
13817;DHT22;6979;52.116;5.286;2023-03-01T03:00:41;3.70;97.00
13817;DHT22;6979;52.116;5.286;2023-03-01T03:03:15;3.60;97.10
13817;DHT22;6979;52.116;5.286;2023-03-01T03:05:42;3.60;97.00
13817;DHT22;6979;52.116;5.286;2023-03-01T03:08:10;3.60;96.90
13817;DHT22;6979;52.116;5.286;2023-03-01T03:10:39;3.60;97.00
13817;DHT22;6979;52.116;5.286;2023-03-01T03:13:11;3.60;96.90
13817;DHT22;6979;52.116;5.286;2023-03-01T03:15:43;3.50;96.80
13817;DHT22;6979;52.116;5.286;2023-03-01T03:18:13;3.50;96.90
13817;DHT22;6979;52.116;5.286;2023-03-01T03:20:44;3.50;97.40
13817;DHT22;6979;52.116;5.286;2023-03-01T03:23:21;3.50;97.00
13817;DHT22;6979;52.116;5.286;2023-03-01T03:25:49;3.50;97.10
13817;DHT22;6979;52.116;5.286;2023-03-01T03:28:17;3.40;97.10
13817;DHT22;6979;52.116;5.286;2023-03-01T03:30:48;3.40;97.10
13817;DHT22;6979;52.116;5.286;2023-03-01T03:33:15;3.40;97.10
13817;DHT22;6979;52.116;5.286;2023-03-01T03:35:43;3.40;97.00
13817;DHT22;6979;52.116;5.286;2023-03-01T03:38:12;3.40;97.00
13817;DHT22;6979;52.116;5.286;2023-03-01T03:40:44;3.30;97.00
13817;DHT22;6979;52.116;5.286;2023-03-01T03:43:13;3.30;97.20
13817;DHT22;6979;52.116;5.286;2023-03-01T03:45:40;3.30;97.30
13817;DHT22;6979;52.116;5.286;2023-03-01T03:48:09;3.20;97.30
13817;DHT22;6979;52.116;5.286;2023-03-01T03:50:37;3.20;97.30
13817;DHT22;6979;52.116;5.286;2023-03-01T03:53:06;3.20;97.40
13817;DHT22;6979;52.116;5.286;2023-03-01T03:55:34;3.20;97.40
13817;DHT22;6979;52.116;5.286;2023-03-01T03:58:02;3.20;97.40
13817;DHT22;6979;52.116;5.286;2023-03-01T04:00:33;3.20;97.40
13817;DHT22;6979;52.116;5.286;2023-03-01T04:03:04;3.10;97.40
13817;DHT22;6979;52.116;5.286;2023-03-01T04:05:32;3.10;97.50
13817;DHT22;6979;52.116;5.286;2023-03-01T04:08:00;3.10;97.60
13817;DHT22;6979;52.116;5.286;2023-03-01T04:10:34;3.00;97.50
13817;DHT22;6979;52.116;5.286;2023-03-01T04:13:02;3.00;97.70
13817;DHT22;6979;52.116;5.286;2023-03-01T04:15:30;3.00;97.70
13817;DHT22;6979;52.116;5.286;2023-03-01T04:17:58;3.00;97.70
13817;DHT22;6979;52.116;5.286;2023-03-01T04:20:26;3.00;97.70
13817;DHT22;6979;52.116;5.286;2023-03-01T04:22:59;2.90;97.70
13817;DHT22;6979;52.116;5.286;2023-03-01T04:25:34;2.90;97.70
13817;DHT22;6979;52.116;5.286;2023-03-01T04:28:00;2.90;97.70
13817;DHT22;6979;52.116;5.286;2023-03-01T04:30:27;2.90;97.80
13817;DHT22;6979;52.116;5.286;2023-03-01T04:32:54;2.90;97.90
13817;DHT22;6979;52.116;5.286;2023-03-01T04:35:21;2.80;98.00
13817;DHT22;6979;52.116;5.286;2023-03-01T04:37:49;2.80;98.00
13817;DHT22;6979;52.116;5.286;2023-03-01T04:40:20;2.80;98.00
13817;DHT22;6979;52.116;5.286;2023-03-01T04:42:47;2.80;98.00
13817;DHT22;6979;52.116;5.286;2023-03-01T04:45:13;2.80;98.00
13817;DHT22;6979;52.116;5.286;2023-03-01T04:47:41;2.80;98.20
13817;DHT22;6979;52.116;5.286;2023-03-01T04:50:11;2.80;98.20
13817;DHT22;6979;52.116;5.286;2023-03-01T04:52:39;2.70;98.20
13817;DHT22;6979;52.116;5.286;2023-03-01T04:55:07;2.70;98.20
13817;DHT22;6979;52.116;5.286;2023-03-01T04:57:35;2.70;98.20
13817;DHT22;6979;52.116;5.286;2023-03-01T05:00:02;2.70;98.30
13817;DHT22;6979;52.116;5.286;2023-03-01T05:02:46;2.70;98.40
13817;DHT22;6979;52.116;5.286;2023-03-01T05:05:14;2.70;98.40
13817;DHT22;6979;52.116;5.286;2023-03-01T05:07:41;2.70;98.40
13817;DHT22;6979;52.116;5.286;2023-03-01T05:10:09;2.70;98.40
13817;DHT22;6979;52.116;5.286;2023-03-01T05:12:37;2.60;98.40
13817;DHT22;6979;52.116;5.286;2023-03-01T05:15:05;2.60;98.40
13817;DHT22;6979;52.116;5.286;2023-03-01T05:17:33;2.60;98.40
13817;DHT22;6979;52.116;5.286;2023-03-01T05:20:02;2.60;98.50
13817;DHT22;6979;52.116;5.286;2023-03-01T05:22:32;2.60;98.50
13817;DHT22;6979;52.116;5.286;2023-03-01T05:24:59;2.60;98.50
13817;DHT22;6979;52.116;5.286;2023-03-01T05:27:28;2.60;98.40
13817;DHT22;6979;52.116;5.286;2023-03-01T05:29:57;2.60;98.40
13817;DHT22;6979;52.116;5.286;2023-03-01T05:32:24;2.60;98.40
13817;DHT22;6979;52.116;5.286;2023-03-01T05:34:51;2.50;98.40
13817;DHT22;6979;52.116;5.286;2023-03-01T05:37:20;2.50;98.50
13817;DHT22;6979;52.116;5.286;2023-03-01T05:39:48;2.50;98.60
13817;DHT22;6979;52.116;5.286;2023-03-01T05:42:18;2.50;98.70
13817;DHT22;6979;52.116;5.286;2023-03-01T05:44:45;2.50;98.80
13817;DHT22;6979;52.116;5.286;2023-03-01T05:47:13;2.50;98.70
13817;DHT22;6979;52.116;5.286;2023-03-01T05:49:40;2.50;98.70
13817;DHT22;6979;52.116;5.286;2023-03-01T05:52:10;2.40;98.70
13817;DHT22;6979;52.116;5.286;2023-03-01T05:54:37;2.40;98.80
13817;DHT22;6979;52.116;5.286;2023-03-01T05:57:04;2.40;99.00
13817;DHT22;6979;52.116;5.286;2023-03-01T05:59:31;2.40;99.10
13817;DHT22;6979;52.116;5.286;2023-03-01T06:01:58;2.40;99.10
13817;DHT22;6979;52.116;5.286;2023-03-01T06:04:26;2.40;99.10
13817;DHT22;6979;52.116;5.286;2023-03-01T06:06:54;2.30;99.00
13817;DHT22;6979;52.116;5.286;2023-03-01T06:09:21;2.30;99.10
13817;DHT22;6979;52.116;5.286;2023-03-01T06:11:48;2.30;99.10
13817;DHT22;6979;52.116;5.286;2023-03-01T06:14:15;2.30;99.20
13817;DHT22;6979;52.116;5.286;2023-03-01T06:16:42;2.30;99.30
13817;DHT22;6979;52.116;5.286;2023-03-01T06:19:09;2.30;99.30
13817;DHT22;6979;52.116;5.286;2023-03-01T06:21:37;2.30;99.30
13817;DHT22;6979;52.116;5.286;2023-03-01T06:24:05;2.20;99.40
13817;DHT22;6979;52.116;5.286;2023-03-01T06:26:32;2.30;99.60
13817;DHT22;6979;52.116;5.286;2023-03-01T06:28:59;2.30;99.60
13817;DHT22;6979;52.116;5.286;2023-03-01T06:31:27;2.20;99.50
13817;DHT22;6979;52.116;5.286;2023-03-01T06:33:56;2.20;99.50
13817;DHT22;6979;52.116;5.286;2023-03-01T06:36:23;2.20;99.50
13817;DHT22;6979;52.116;5.286;2023-03-01T06:38:51;2.20;99.50
13817;DHT22;6979;52.116;5.286;2023-03-01T06:41:18;2.20;99.70
13817;DHT22;6979;52.116;5.286;2023-03-01T06:43:45;2.20;99.70
13817;DHT22;6979;52.116;5.286;2023-03-01T06:46:12;2.20;99.70
13817;DHT22;6979;52.116;5.286;2023-03-01T06:48:39;2.20;99.80
13817;DHT22;6979;52.116;5.286;2023-03-01T06:51:06;2.20;99.80
13817;DHT22;6979;52.116;5.286;2023-03-01T06:53:33;2.20;99.90
13817;DHT22;6979;52.116;5.286;2023-03-01T06:56:01;2.20;99.90
13817;DHT22;6979;52.116;5.286;2023-03-01T06:58:28;2.20;99.90
13817;DHT22;6979;52.116;5.286;2023-03-01T07:00:55;2.20;99.90
13817;DHT22;6979;52.116;5.286;2023-03-01T07:03:22;2.20;99.90
13817;DHT22;6979;52.116;5.286;2023-03-01T07:05:49;2.20;99.90
13817;DHT22;6979;52.116;5.286;2023-03-01T07:08:18;2.20;99.90
13817;DHT22;6979;52.116;5.286;2023-03-01T07:10:45;2.20;99.90
13817;DHT22;6979;52.116;5.286;2023-03-01T07:13:13;2.30;99.90
13817;DHT22;6979;52.116;5.286;2023-03-01T07:15:40;2.30;99.90
13817;DHT22;6979;52.116;5.286;2023-03-01T07:18:08;2.30;99.90
13817;DHT22;6979;52.116;5.286;2023-03-01T07:20:41;2.30;99.90
13817;DHT22;6979;52.116;5.286;2023-03-01T07:23:10;2.40;99.90
13817;DHT22;6979;52.116;5.286;2023-03-01T07:25:37;2.40;99.90
13817;DHT22;6979;52.116;5.286;2023-03-01T07:28:04;2.40;99.90
13817;DHT22;6979;52.116;5.286;2023-03-01T07:30:32;2.40;99.90
13817;DHT22;6979;52.116;5.286;2023-03-01T07:32:59;2.50;99.90
13817;DHT22;6979;52.116;5.286;2023-03-01T07:35:27;2.50;99.90
13817;DHT22;6979;52.116;5.286;2023-03-01T07:37:54;2.50;99.90
13817;DHT22;6979;52.116;5.286;2023-03-01T07:40:21;2.60;99.90
13817;DHT22;6979;52.116;5.286;2023-03-01T07:42:48;2.60;99.90
13817;DHT22;6979;52.116;5.286;2023-03-01T07:45:15;2.70;99.90
13817;DHT22;6979;52.116;5.286;2023-03-01T07:47:43;2.70;99.90
13817;DHT22;6979;52.116;5.286;2023-03-01T07:50:13;2.80;99.90
13817;DHT22;6979;52.116;5.286;2023-03-01T07:52:41;2.90;99.90
13817;DHT22;6979;52.116;5.286;2023-03-01T07:55:08;2.90;99.90
13817;DHT22;6979;52.116;5.286;2023-03-01T07:57:35;2.90;99.90
13817;DHT22;6979;52.116;5.286;2023-03-01T08:00:03;3.00;99.90
13817;DHT22;6979;52.116;5.286;2023-03-01T08:02:37;3.10;99.90
13817;DHT22;6979;52.116;5.286;2023-03-01T08:05:07;3.20;99.90
13817;DHT22;6979;52.116;5.286;2023-03-01T08:07:34;3.30;99.90
13817;DHT22;6979;52.116;5.286;2023-03-01T08:10:01;3.40;99.90
13817;DHT22;6979;52.116;5.286;2023-03-01T08:12:28;3.50;99.90
13817;DHT22;6979;52.116;5.286;2023-03-01T08:14:55;3.50;99.90
13817;DHT22;6979;52.116;5.286;2023-03-01T08:17:22;3.60;99.90
13817;DHT22;6979;52.116;5.286;2023-03-01T08:19:49;3.70;99.90
13817;DHT22;6979;52.116;5.286;2023-03-01T08:22:17;3.80;99.90
13817;DHT22;6979;52.116;5.286;2023-03-01T08:24:44;3.90;99.90
13817;DHT22;6979;52.116;5.286;2023-03-01T08:27:11;4.00;99.90
13817;DHT22;6979;52.116;5.286;2023-03-01T08:29:38;4.10;99.90
13817;DHT22;6979;52.116;5.286;2023-03-01T08:32:05;4.20;99.90
13817;DHT22;6979;52.116;5.286;2023-03-01T08:34:32;4.40;99.90
13817;DHT22;6979;52.116;5.286;2023-03-01T08:37:01;4.40;99.90
13817;DHT22;6979;52.116;5.286;2023-03-01T08:39:30;4.60;99.90
13817;DHT22;6979;52.116;5.286;2023-03-01T08:41:57;4.70;99.90
13817;DHT22;6979;52.116;5.286;2023-03-01T08:44:24;4.80;99.90
13817;DHT22;6979;52.116;5.286;2023-03-01T08:46:51;4.90;99.90
13817;DHT22;6979;52.116;5.286;2023-03-01T08:49:20;5.00;99.90
13817;DHT22;6979;52.116;5.286;2023-03-01T08:51:47;5.20;99.90
13817;DHT22;6979;52.116;5.286;2023-03-01T08:54:17;5.30;99.90
13817;DHT22;6979;52.116;5.286;2023-03-01T08:56:49;5.40;99.90
13817;DHT22;6979;52.116;5.286;2023-03-01T08:59:19;5.50;99.90
13817;DHT22;6979;52.116;5.286;2023-03-01T09:01:46;5.70;99.90
13817;DHT22;6979;52.116;5.286;2023-03-01T09:04:14;5.80;99.90
13817;DHT22;6979;52.116;5.286;2023-03-01T09:06:41;5.90;99.90
13817;DHT22;6979;52.116;5.286;2023-03-01T09:09:13;6.00;99.90
13817;DHT22;6979;52.116;5.286;2023-03-01T09:11:41;6.10;99.90
13817;DHT22;6979;52.116;5.286;2023-03-01T09:14:14;6.20;99.90
13817;DHT22;6979;52.116;5.286;2023-03-01T09:16:41;6.40;99.90
13817;DHT22;6979;52.116;5.286;2023-03-01T09:19:08;6.50;99.90
13817;DHT22;6979;52.116;5.286;2023-03-01T09:21:35;6.60;99.90
13817;DHT22;6979;52.116;5.286;2023-03-01T09:24:02;6.70;99.90
13817;DHT22;6979;52.116;5.286;2023-03-01T09:26:29;6.80;99.90
13817;DHT22;6979;52.116;5.286;2023-03-01T09:28:56;7.00;99.90
13817;DHT22;6979;52.116;5.286;2023-03-01T09:31:24;7.10;99.90
13817;DHT22;6979;52.116;5.286;2023-03-01T09:33:54;7.40;99.90
13817;DHT22;6979;52.116;5.286;2023-03-01T09:36:22;7.90;99.90
13817;DHT22;6979;52.116;5.286;2023-03-01T09:38:52;8.60;99.90
13817;DHT22;6979;52.116;5.286;2023-03-01T09:41:33;9.40;99.90
13817;DHT22;6979;52.116;5.286;2023-03-01T09:44:09;10.30;99.90
13817;DHT22;6979;52.116;5.286;2023-03-01T09:46:42;11.20;99.90
13817;DHT22;6979;52.116;5.286;2023-03-01T09:49:15;12.20;99.90
13817;DHT22;6979;52.116;5.286;2023-03-01T09:51:53;13.10;99.90
13817;DHT22;6979;52.116;5.286;2023-03-01T09:54:20;14.10;99.90
13817;DHT22;6979;52.116;5.286;2023-03-01T09:56:57;14.90;99.90
13817;DHT22;6979;52.116;5.286;2023-03-01T09:59:29;15.80;99.80
13817;DHT22;6979;52.116;5.286;2023-03-01T10:02:10;16.50;98.70
13817;DHT22;6979;52.116;5.286;2023-03-01T10:04:45;17.20;97.70
13817;DHT22;6979;52.116;5.286;2023-03-01T10:07:26;17.90;96.20
13817;DHT22;6979;52.116;5.286;2023-03-01T10:09:59;18.50;95.50
13817;DHT22;6979;52.116;5.286;2023-03-01T10:12:40;19.10;94.50
13817;DHT22;6979;52.116;5.286;2023-03-01T10:15:13;19.70;93.60
13817;DHT22;6979;52.116;5.286;2023-03-01T10:17:47;20.20;92.50
13817;DHT22;6979;52.116;5.286;2023-03-01T10:20:18;20.70;92.30
13817;DHT22;6979;52.116;5.286;2023-03-01T10:22:45;21.10;91.80
13817;DHT22;6979;52.116;5.286;2023-03-01T10:25:23;21.60;91.30
13817;DHT22;6979;52.116;5.286;2023-03-01T10:27:54;22.00;90.10
13817;DHT22;6979;52.116;5.286;2023-03-01T10:30:34;22.40;88.90
13817;DHT22;6979;52.116;5.286;2023-03-01T10:33:20;22.80;86.80
13817;DHT22;6979;52.116;5.286;2023-03-01T10:35:49;23.20;84.20
13817;DHT22;6979;52.116;5.286;2023-03-01T10:38:17;23.40;84.30
13817;DHT22;6979;52.116;5.286;2023-03-01T10:40:54;23.60;82.40
13817;DHT22;6979;52.116;5.286;2023-03-01T10:43:23;23.80;80.60
13817;DHT22;6979;52.116;5.286;2023-03-01T10:45:50;23.90;81.00
13817;DHT22;6979;52.116;5.286;2023-03-01T10:48:20;24.00;79.20
13817;DHT22;6979;52.116;5.286;2023-03-01T10:50:51;24.20;78.10
13817;DHT22;6979;52.116;5.286;2023-03-01T10:53:33;24.30;78.30
13817;DHT22;6979;52.116;5.286;2023-03-01T10:56:02;24.40;77.60
13817;DHT22;6979;52.116;5.286;2023-03-01T10:58:36;24.50;77.70
13817;DHT22;6979;52.116;5.286;2023-03-01T11:01:05;24.60;76.90
13817;DHT22;6979;52.116;5.286;2023-03-01T11:03:34;24.80;76.40
13817;DHT22;6979;52.116;5.286;2023-03-01T11:06:06;24.90;75.70
13817;DHT22;6979;52.116;5.286;2023-03-01T11:08:40;25.10;75.40
13817;DHT22;6979;52.116;5.286;2023-03-01T11:11:17;25.20;75.50
13817;DHT22;6979;52.116;5.286;2023-03-01T11:13:54;25.40;73.80
13817;DHT22;6979;52.116;5.286;2023-03-01T11:16:39;25.60;72.80
13817;DHT22;6979;52.116;5.286;2023-03-01T11:19:19;25.60;72.20
13817;DHT22;6979;52.116;5.286;2023-03-01T11:21:54;25.70;71.20
13817;DHT22;6979;52.116;5.286;2023-03-01T11:24:27;25.70;71.00
13817;DHT22;6979;52.116;5.286;2023-03-01T11:26:56;25.60;70.70
13817;DHT22;6979;52.116;5.286;2023-03-01T11:29:28;25.60;70.90
13817;DHT22;6979;52.116;5.286;2023-03-01T11:32:00;25.50;70.30
13817;DHT22;6979;52.116;5.286;2023-03-01T11:34:38;25.50;70.10
13817;DHT22;6979;52.116;5.286;2023-03-01T11:37:13;25.40;69.30
13817;DHT22;6979;52.116;5.286;2023-03-01T11:39:49;25.40;68.30
13817;DHT22;6979;52.116;5.286;2023-03-01T11:42:20;25.30;68.80
13817;DHT22;6979;52.116;5.286;2023-03-01T11:44:50;25.30;68.50
13817;DHT22;6979;52.116;5.286;2023-03-01T11:47:33;25.20;68.10
13817;DHT22;6979;52.116;5.286;2023-03-01T11:50:16;25.10;67.80
13817;DHT22;6979;52.116;5.286;2023-03-01T11:52:56;25.00;67.90
13817;DHT22;6979;52.116;5.286;2023-03-01T11:55:36;24.90;67.80
13817;DHT22;6979;52.116;5.286;2023-03-01T11:58:33;24.80;68.10
13817;DHT22;6979;52.116;5.286;2023-03-01T12:01:19;24.70;68.10
13817;DHT22;6979;52.116;5.286;2023-03-01T12:04:04;24.70;69.40
13817;DHT22;6979;52.116;5.286;2023-03-01T12:06:44;24.70;69.30
13817;DHT22;6979;52.116;5.286;2023-03-01T12:09:21;24.70;68.40
13817;DHT22;6979;52.116;5.286;2023-03-01T12:17:58;24.40;66.30
13817;DHT22;6979;52.116;5.286;2023-03-01T12:20:33;24.30;67.00
13817;DHT22;6979;52.116;5.286;2023-03-01T12:23:27;24.10;68.20
13817;DHT22;6979;52.116;5.286;2023-03-01T12:26:08;24.00;67.30
13817;DHT22;6979;52.116;5.286;2023-03-01T12:28:56;23.90;67.90
13817;DHT22;6979;52.116;5.286;2023-03-01T12:31:44;23.80;65.90
13817;DHT22;6979;52.116;5.286;2023-03-01T12:34:33;23.70;66.90
13817;DHT22;6979;52.116;5.286;2023-03-01T12:37:16;23.50;66.50
13817;DHT22;6979;52.116;5.286;2023-03-01T12:39:55;23.30;66.00
13817;DHT22;6979;52.116;5.286;2023-03-01T12:42:31;23.20;65.80
13817;DHT22;6979;52.116;5.286;2023-03-01T12:45:20;23.00;65.20
13817;DHT22;6979;52.116;5.286;2023-03-01T12:47:58;22.80;64.90
13817;DHT22;6979;52.116;5.286;2023-03-01T12:50:39;22.60;66.40
13817;DHT22;6979;52.116;5.286;2023-03-01T12:53:23;22.50;66.70
13817;DHT22;6979;52.116;5.286;2023-03-01T12:55:53;22.40;67.10
13817;DHT22;6979;52.116;5.286;2023-03-01T12:58:25;22.40;68.30
13817;DHT22;6979;52.116;5.286;2023-03-01T13:01:03;22.40;67.60
13817;DHT22;6979;52.116;5.286;2023-03-01T13:03:42;22.50;67.60
13817;DHT22;6979;52.116;5.286;2023-03-01T13:06:21;22.60;67.60
13817;DHT22;6979;52.116;5.286;2023-03-01T13:08:56;22.70;67.20
13817;DHT22;6979;52.116;5.286;2023-03-01T13:11:31;22.80;66.40
13817;DHT22;6979;52.116;5.286;2023-03-01T13:17:00;22.90;65.90
13817;DHT22;6979;52.116;5.286;2023-03-01T13:19:28;22.90;66.20
13817;DHT22;6979;52.116;5.286;2023-03-01T13:21:58;22.90;66.30
13817;DHT22;6979;52.116;5.286;2023-03-01T13:24:28;22.90;66.70
13817;DHT22;6979;52.116;5.286;2023-03-01T13:27:22;22.80;66.70
13817;DHT22;6979;52.116;5.286;2023-03-01T13:29:55;22.90;65.90
13817;DHT22;6979;52.116;5.286;2023-03-01T13:32:26;23.00;66.80
13817;DHT22;6979;52.116;5.286;2023-03-01T13:34:57;23.00;66.80
13817;DHT22;6979;52.116;5.286;2023-03-01T13:37:33;23.10;66.80
13817;DHT22;6979;52.116;5.286;2023-03-01T13:40:04;23.20;66.30
13817;DHT22;6979;52.116;5.286;2023-03-01T13:42:35;23.30;64.90
13817;DHT22;6979;52.116;5.286;2023-03-01T13:45:05;23.40;65.20
13817;DHT22;6979;52.116;5.286;2023-03-01T13:47:42;23.40;65.80
13817;DHT22;6979;52.116;5.286;2023-03-01T13:50:18;23.50;64.50
13817;DHT22;6979;52.116;5.286;2023-03-01T13:52:49;23.40;64.20
13817;DHT22;6979;52.116;5.286;2023-03-01T13:55:20;23.50;64.60
13817;DHT22;6979;52.116;5.286;2023-03-01T13:57:53;23.50;64.50
13817;DHT22;6979;52.116;5.286;2023-03-01T14:00:30;23.50;64.60
13817;DHT22;6979;52.116;5.286;2023-03-01T14:03:02;23.60;64.50
13817;DHT22;6979;52.116;5.286;2023-03-01T14:05:30;23.70;64.40
13817;DHT22;6979;52.116;5.286;2023-03-01T14:07:57;23.80;64.90
13817;DHT22;6979;52.116;5.286;2023-03-01T14:10:30;23.90;64.50
13817;DHT22;6979;52.116;5.286;2023-03-01T14:13:14;24.00;63.10
13817;DHT22;6979;52.116;5.286;2023-03-01T14:15:54;24.10;62.50
13817;DHT22;6979;52.116;5.286;2023-03-01T14:18:33;24.10;63.20
13817;DHT22;6979;52.116;5.286;2023-03-01T14:21:07;24.10;63.10
13817;DHT22;6979;52.116;5.286;2023-03-01T14:23:34;24.10;63.20
13817;DHT22;6979;52.116;5.286;2023-03-01T14:26:05;24.20;63.90
13817;DHT22;6979;52.116;5.286;2023-03-01T14:28:36;24.20;63.80
13817;DHT22;6979;52.116;5.286;2023-03-01T14:31:31;24.20;62.90
13817;DHT22;6979;52.116;5.286;2023-03-01T14:33:59;24.30;62.70
13817;DHT22;6979;52.116;5.286;2023-03-01T14:36:28;24.30;62.60
13817;DHT22;6979;52.116;5.286;2023-03-01T14:38:55;24.20;62.90
13817;DHT22;6979;52.116;5.286;2023-03-01T14:41:26;24.20;63.10
13817;DHT22;6979;52.116;5.286;2023-03-01T14:43:58;24.20;62.30
13817;DHT22;6979;52.116;5.286;2023-03-01T14:46:30;24.20;62.60
13817;DHT22;6979;52.116;5.286;2023-03-01T14:49:02;24.20;62.80
13817;DHT22;6979;52.116;5.286;2023-03-01T14:51:29;24.20;62.00
13817;DHT22;6979;52.116;5.286;2023-03-01T14:53:57;24.20;62.80
13817;DHT22;6979;52.116;5.286;2023-03-01T14:56:23;24.20;62.90
13817;DHT22;6979;52.116;5.286;2023-03-01T14:59:01;24.20;62.80
13817;DHT22;6979;52.116;5.286;2023-03-01T15:01:28;24.30;62.10
13817;DHT22;6979;52.116;5.286;2023-03-01T15:03:57;24.30;62.60
13817;DHT22;6979;52.116;5.286;2023-03-01T15:06:26;24.40;62.10
13817;DHT22;6979;52.116;5.286;2023-03-01T15:08:54;24.40;62.10
13817;DHT22;6979;52.116;5.286;2023-03-01T15:11:28;24.40;61.80
13817;DHT22;6979;52.116;5.286;2023-03-01T15:13:56;24.40;61.00
13817;DHT22;6979;52.116;5.286;2023-03-01T15:16:27;24.40;61.20
13817;DHT22;6979;52.116;5.286;2023-03-01T15:18:56;24.30;60.90
13817;DHT22;6979;52.116;5.286;2023-03-01T15:21:26;24.20;60.40
13817;DHT22;6979;52.116;5.286;2023-03-01T15:23:56;24.10;60.40
13817;DHT22;6979;52.116;5.286;2023-03-01T15:26:28;23.90;60.70
13817;DHT22;6979;52.116;5.286;2023-03-01T15:28:57;23.70;60.40
13817;DHT22;6979;52.116;5.286;2023-03-01T15:31:27;23.50;60.60
13817;DHT22;6979;52.116;5.286;2023-03-01T15:34:19;23.40;60.50
13817;DHT22;6979;52.116;5.286;2023-03-01T15:36:47;23.10;60.30
13817;DHT22;6979;52.116;5.286;2023-03-01T15:39:42;22.90;61.20
13817;DHT22;6979;52.116;5.286;2023-03-01T15:42:35;22.70;62.30
13817;DHT22;6979;52.116;5.286;2023-03-01T15:45:08;22.50;61.00
13817;DHT22;6979;52.116;5.286;2023-03-01T15:47:39;22.30;61.40
13817;DHT22;6979;52.116;5.286;2023-03-01T15:50:19;22.10;62.00
13817;DHT22;6979;52.116;5.286;2023-03-01T15:52:47;21.90;62.10
13817;DHT22;6979;52.116;5.286;2023-03-01T15:55:18;21.90;62.60
13817;DHT22;6979;52.116;5.286;2023-03-01T15:57:47;21.70;62.80
13817;DHT22;6979;52.116;5.286;2023-03-01T16:00:15;21.60;62.90
13817;DHT22;6979;52.116;5.286;2023-03-01T16:02:45;21.50;62.80
13817;DHT22;6979;52.116;5.286;2023-03-01T16:05:18;21.40;62.80
13817;DHT22;6979;52.116;5.286;2023-03-01T16:07:47;21.20;62.40
13817;DHT22;6979;52.116;5.286;2023-03-01T16:10:14;21.00;62.80
13817;DHT22;6979;52.116;5.286;2023-03-01T16:12:41;20.80;62.80
13817;DHT22;6979;52.116;5.286;2023-03-01T16:15:15;20.50;62.90
13817;DHT22;6979;52.116;5.286;2023-03-01T16:17:44;20.10;62.50
13817;DHT22;6979;52.116;5.286;2023-03-01T16:20:14;19.80;63.30
13817;DHT22;6979;52.116;5.286;2023-03-01T16:22:42;19.40;63.70
13817;DHT22;6979;52.116;5.286;2023-03-01T16:25:10;18.90;64.20
13817;DHT22;6979;52.116;5.286;2023-03-01T16:27:37;18.50;64.50